Time;durP1;ratioP1;P1;durP2;ratioP2;P2;SDS_P1;SDS_P2;PMS_P1;PMS_P2;Temp;Humidity;BMP_temperature;BMP_pressure;BME280_temperature;BME280_humidity;BME280_pressure;Samples;Min_cycle;Max_cycle;Signal;HPM_P1;HPM_P2
2020/12/26 00:01:19;;;;;;;4.60;1.58;;;0.60;99.90;;;;;;5050430;28;20037;-88
2020/12/26 00:03:46;;;;;;;4.38;1.30;;;0.60;99.90;;;;;;5022578;28;20040;-88
2020/12/26 00:06:16;;;;;;;5.88;1.73;;;0.60;99.90;;;;;;5033540;28;20049;-88
2020/12/26 00:08:43;;;;;;;3.38;1.40;;;0.60;99.90;;;;;;5033568;28;20029;-88
2020/12/26 00:11:10;;;;;;;4.40;1.02;;;0.60;99.90;;;;;;5033558;28;20044;-88
2020/12/26 00:13:39;;;;;;;6.72;2.08;;;0.70;99.90;;;;;;5033155;28;20033;-88
2020/12/26 00:16:10;;;;;;;7.25;2.97;;;0.90;99.90;;;;;;5047000;28;20045;-89
2020/12/26 00:18:36;;;;;;;8.55;2.83;;;1.00;99.90;;;;;;5032190;28;20033;-88
2020/12/26 00:21:05;;;;;;;10.45;2.53;;;1.00;99.90;;;;;;5032743;28;20120;-88
2020/12/26 00:23:33;;;;;;;5.88;2.53;;;1.00;99.90;;;;;;5032375;28;20075;-88
2020/12/26 00:25:59;;;;;;;6.95;2.70;;;1.00;99.90;;;;;;5033098;28;20076;-89
2020/12/26 00:28:25;;;;;;;5.40;2.42;;;1.00;99.90;;;;;;5032992;28;20029;-87
2020/12/26 00:30:50;;;;;;;6.78;3.88;;;1.00;99.90;;;;;;5049706;28;20057;-88
2020/12/26 00:33:16;;;;;;;10.85;4.22;;;1.00;99.90;;;;;;5027209;28;20071;-89
2020/12/26 00:35:44;;;;;;;6.82;3.10;;;1.10;99.90;;;;;;5030367;28;20079;-89
2020/12/26 00:38:10;;;;;;;9.55;2.80;;;1.10;99.90;;;;;;5032923;28;20109;-89
2020/12/26 00:40:35;;;;;;;8.32;2.85;;;1.10;99.90;;;;;;5031325;28;20038;-88
2020/12/26 00:43:01;;;;;;;11.88;3.63;;;1.00;99.90;;;;;;5046768;28;20056;-88
2020/12/26 00:45:26;;;;;;;11.68;3.60;;;1.10;99.90;;;;;;5032663;28;20109;-88
2020/12/26 00:47:52;;;;;;;8.18;3.70;;;1.20;99.90;;;;;;5032650;28;20041;-86
2020/12/26 00:50:19;;;;;;;7.25;3.08;;;1.20;99.90;;;;;;5030071;28;20033;-88
2020/12/26 00:52:45;;;;;;;10.15;3.65;;;1.20;99.90;;;;;;5030485;28;20045;-88
2020/12/26 00:55:11;;;;;;;5.43;2.80;;;1.20;99.90;;;;;;5048618;28;20051;-89
2020/12/26 00:57:37;;;;;;;7.60;3.17;;;1.20;99.90;;;;;;5030547;28;20453;-88
2020/12/26 01:00:05;;;;;;;6.35;2.35;;;1.20;99.90;;;;;;5032580;28;20056;-88
2020/12/26 01:02:37;;;;;;;7.50;2.65;;;1.30;99.90;;;;;;5033508;28;20053;-88
2020/12/26 01:05:04;;;;;;;6.85;3.40;;;1.40;99.90;;;;;;5033608;28;20033;-88
2020/12/26 01:07:29;;;;;;;7.80;2.95;;;1.40;99.90;;;;;;5032133;28;20047;-88
2020/12/26 01:09:55;;;;;;;6.95;2.65;;;1.50;99.90;;;;;;5024134;28;20064;-87
2020/12/26 01:12:20;;;;;;;10.00;3.22;;;1.60;99.90;;;;;;5032094;28;20120;-88
2020/12/26 01:14:46;;;;;;;6.85;3.40;;;1.60;99.90;;;;;;5024098;28;20030;-88
2020/12/26 01:17:14;;;;;;;7.60;3.22;;;1.70;99.90;;;;;;5032215;28;20037;-89
2020/12/26 01:19:39;;;;;;;7.80;3.53;;;1.70;99.90;;;;;;5025033;28;20421;-88
2020/12/26 01:22:05;;;;;;;4.80;2.78;;;1.80;99.90;;;;;;5048486;28;20045;-88
2020/12/26 01:24:30;;;;;;;5.32;1.40;;;1.80;99.90;;;;;;5029027;28;20037;-88
2020/12/26 01:26:56;;;;;;;5.82;2.47;;;1.80;99.90;;;;;;5028987;28;20045;-88
2020/12/26 01:29:21;;;;;;;7.63;2.20;;;1.80;99.90;;;;;;5023648;28;20033;-89
2020/12/26 01:31:53;;;;;;;5.68;2.28;;;1.80;99.90;;;;;;5031801;28;20036;-88
2020/12/26 01:34:19;;;;;;;4.55;1.92;;;1.80;99.90;;;;;;5031071;28;20028;-88
2020/12/26 01:36:55;;;;;;;4.45;1.40;;;1.80;99.90;;;;;;5031631;28;20041;-88
2020/12/26 01:39:21;;;;;;;7.85;2.13;;;1.80;99.90;;;;;;5046833;28;20044;-88
2020/12/26 01:41:51;;;;;;;6.40;1.73;;;1.90;99.90;;;;;;5028971;28;20037;-88
2020/12/26 01:44:17;;;;;;;4.55;2.28;;;1.90;99.90;;;;;;5028523;28;20037;-87
2020/12/26 01:46:43;;;;;;;5.30;1.95;;;1.90;99.90;;;;;;5028607;28;20044;-88
2020/12/26 01:49:09;;;;;;;7.32;2.10;;;1.90;99.90;;;;;;5028691;28;20091;-88
2020/12/26 01:51:35;;;;;;;7.25;2.40;;;1.90;99.90;;;;;;5031762;28;20033;-88
2020/12/26 01:54:01;;;;;;;8.27;2.40;;;1.90;99.90;;;;;;5024244;28;20057;-87
2020/12/26 01:56:28;;;;;;;3.92;2.25;;;1.90;99.90;;;;;;5028711;28;20041;-88
2020/12/26 01:58:54;;;;;;;7.68;1.75;;;2.00;99.90;;;;;;5031440;28;20033;-87
2020/12/26 02:01:51;;;;;;;5.68;1.65;;;1.90;99.90;;;;;;5028816;28;20040;-88
2020/12/26 02:04:17;;;;;;;5.28;2.35;;;2.00;99.90;;;;;;5055268;28;20094;-88
2020/12/26 02:06:44;;;;;;;5.68;1.77;;;2.00;99.90;;;;;;5031409;28;20041;-88
2020/12/26 02:09:12;;;;;;;6.93;2.70;;;2.00;99.90;;;;;;5029078;28;20033;-87
2020/12/26 02:11:38;;;;;;;5.30;2.03;;;2.10;99.90;;;;;;5031204;28;20066;-87
2020/12/26 02:14:04;;;;;;;8.45;2.47;;;2.20;99.90;;;;;;5031017;28;20041;-87
2020/12/26 02:16:41;;;;;;;6.00;3.25;;;2.30;99.90;;;;;;5031170;28;20181;-88
2020/12/26 02:19:06;;;;;;;5.63;1.92;;;2.30;99.90;;;;;;5023055;28;20296;-88
2020/12/26 02:21:32;;;;;;;9.23;2.92;;;2.30;99.90;;;;;;5031138;28;20614;-88
2020/12/26 02:23:58;;;;;;;5.18;1.98;;;2.40;99.90;;;;;;5024817;28;20052;-87
2020/12/26 02:26:28;;;;;;;7.43;3.47;;;2.40;99.90;;;;;;5031242;28;20056;-87
2020/12/26 02:28:54;;;;;;;5.32;2.38;;;2.50;99.90;;;;;;5030895;28;20039;-86
2020/12/26 02:31:20;;;;;;;6.72;3.17;;;2.50;99.90;;;;;;5031094;28;20128;-86
2020/12/26 02:33:46;;;;;;;9.23;3.20;;;2.60;99.90;;;;;;5030020;28;20044;-87
2020/12/26 02:36:11;;;;;;;12.15;3.88;;;2.60;99.90;;;;;;5031009;28;20071;-87
2020/12/26 02:38:37;;;;;;;10.82;3.50;;;2.60;99.90;;;;;;5025537;28;20042;-86
2020/12/26 02:41:03;;;;;;;8.40;3.15;;;2.60;99.90;;;;;;5028462;28;20021;-85
2020/12/26 02:43:28;;;;;;;10.35;3.10;;;2.60;99.90;;;;;;5047424;28;20119;-86
2020/12/26 02:45:55;;;;;;;9.07;3.78;;;2.70;99.90;;;;;;5030913;28;20056;-87
2020/12/26 02:48:21;;;;;;;8.45;3.65;;;2.70;99.90;;;;;;5051469;28;20041;-88
2020/12/26 02:50:48;;;;;;;8.07;2.08;;;2.70;99.90;;;;;;5034572;28;20029;-87
2020/12/26 02:56:34;;;;;;;;;;;2.70;99.90;;;;;;5067147;28;20052;-87
2020/12/26 02:59:00;;;;;;;6.78;2.20;;;2.70;99.90;;;;;;5048009;28;19952;-87
2020/12/26 03:01:25;;;;;;;7.40;2.67;;;2.70;99.90;;;;;;5050993;28;20032;-88
2020/12/26 03:03:51;;;;;;;9.68;2.97;;;2.70;99.90;;;;;;5034346;28;20041;-87
2020/12/26 03:06:16;;;;;;;7.07;2.75;;;2.80;99.90;;;;;;5032031;28;20037;-87
2020/12/26 03:08:42;;;;;;;9.35;4.53;;;2.80;99.90;;;;;;5034161;28;20460;-86
2020/12/26 03:11:08;;;;;;;5.55;3.00;;;2.80;99.90;;;;;;5050366;28;20060;-87
2020/12/26 03:13:34;;;;;;;6.63;3.13;;;2.80;99.90;;;;;;5033827;28;20037;-88
2020/12/26 03:16:00;;;;;;;4.10;2.38;;;2.70;99.90;;;;;;5048003;28;20100;-88
2020/12/26 03:18:26;;;;;;;6.60;2.50;;;2.70;99.90;;;;;;5034257;28;20043;-87
2020/12/26 03:20:52;;;;;;;7.43;2.97;;;2.70;99.90;;;;;;5034019;28;20033;-87
2020/12/26 03:23:18;;;;;;;6.25;3.10;;;2.70;99.90;;;;;;5049968;28;20036;-88
2020/12/26 03:25:45;;;;;;;7.63;4.45;;;2.70;99.90;;;;;;5034070;28;20119;-87
2020/12/26 03:28:11;;;;;;;9.18;2.88;;;2.70;99.90;;;;;;5033031;28;20557;-88
2020/12/26 03:30:36;;;;;;;6.70;3.00;;;2.70;99.90;;;;;;5033217;28;20041;-88
2020/12/26 03:33:03;;;;;;;5.85;3.03;;;2.60;99.90;;;;;;5031050;28;20039;-88
2020/12/26 03:35:28;;;;;;;5.00;3.55;;;2.60;99.90;;;;;;5033943;28;20036;-88
2020/12/26 03:37:54;;;;;;;7.93;2.95;;;2.70;99.90;;;;;;5033960;28;20552;-88
2020/12/26 03:40:19;;;;;;;7.18;2.92;;;2.60;99.90;;;;;;5033524;28;20067;-88
2020/12/26 03:42:45;;;;;;;4.93;2.95;;;2.60;99.90;;;;;;5050426;28;20120;-88
2020/12/26 03:45:10;;;;;;;5.88;2.95;;;2.50;99.90;;;;;;5033217;28;20041;-88
2020/12/26 03:47:36;;;;;;;6.10;3.08;;;2.50;99.90;;;;;;5050452;28;20040;-88
2020/12/26 03:50:02;;;;;;;8.98;2.70;;;2.50;99.90;;;;;;5033623;28;20029;-88
2020/12/26 03:52:28;;;;;;;3.33;2.30;;;2.40;99.90;;;;;;5033485;28;20037;-88
2020/12/26 03:54:53;;;;;;;5.88;2.83;;;2.30;99.90;;;;;;5040259;22;20050;-87
2020/12/26 03:57:19;;;;;;;5.05;2.50;;;2.20;99.90;;;;;;5022308;28;20112;-88
2020/12/26 03:59:44;;;;;;;6.05;2.78;;;2.20;99.90;;;;;;5047603;28;20040;-87
2020/12/26 04:02:10;;;;;;;8.05;2.88;;;2.20;99.90;;;;;;5018943;28;20400;-87
2020/12/26 04:04:36;;;;;;;5.78;3.13;;;2.20;99.90;;;;;;5033056;28;20097;-87
2020/12/26 04:07:02;;;;;;;4.88;2.67;;;2.10;99.90;;;;;;5021977;28;20040;-87
2020/12/26 04:09:28;;;;;;;4.05;2.38;;;2.00;99.90;;;;;;5030169;28;20037;-86
2020/12/26 04:11:53;;;;;;;3.47;1.95;;;2.00;99.90;;;;;;5030404;28;20068;-87
2020/12/26 04:14:19;;;;;;;4.18;1.58;;;1.90;99.90;;;;;;5030264;28;20029;-87
2020/12/26 04:16:45;;;;;;;4.45;2.05;;;1.90;99.90;;;;;;5021864;28;20033;-87
2020/12/26 04:19:10;;;;;;;6.82;2.15;;;1.90;99.90;;;;;;5030195;28;20057;-88
2020/12/26 04:21:36;;;;;;;5.93;1.80;;;1.90;99.90;;;;;;5021750;28;20033;-87
2020/12/26 04:24:01;;;;;;;3.50;1.58;;;1.90;99.90;;;;;;5029858;28;20040;-87
2020/12/26 04:26:27;;;;;;;6.85;1.42;;;1.90;99.90;;;;;;5031532;28;20056;-87
2020/12/26 04:28:52;;;;;;;2.63;1.30;;;1.80;99.90;;;;;;5013769;28;20081;-87
2020/12/26 04:31:18;;;;;;;5.95;2.05;;;1.80;99.90;;;;;;5033826;28;20469;-86
2020/12/26 04:33:44;;;;;;;4.03;1.23;;;1.80;99.90;;;;;;5013284;28;20038;-87
2020/12/26 04:36:10;;;;;;;6.55;1.58;;;1.80;99.90;;;;;;5031892;28;20030;-87
2020/12/26 04:38:36;;;;;;;3.55;1.73;;;1.80;99.90;;;;;;5029670;28;20049;-87
2020/12/26 04:41:04;;;;;;;3.95;1.52;;;1.80;99.90;;;;;;5029465;28;20045;-88
2020/12/26 04:43:30;;;;;;;4.15;2.00;;;1.80;99.90;;;;;;5012892;28;20037;-87
2020/12/26 04:46:04;;;;;;;5.10;2.00;;;1.70;99.90;;;;;;5012928;28;20114;-88
2020/12/26 04:48:33;;;;;;;6.07;1.50;;;1.80;99.90;;;;;;5027243;28;20040;-88
2020/12/26 04:51:03;;;;;;;6.65;2.22;;;1.70;99.90;;;;;;5044399;28;20472;-88
2020/12/26 04:53:51;;;;;;;6.38;2.75;;;1.80;99.90;;;;;;5045343;28;20109;-88
2020/12/26 04:56:20;;;;;;;4.43;2.17;;;1.80;99.90;;;;;;5018421;28;20078;-88
2020/12/26 04:58:48;;;;;;;5.15;2.13;;;1.80;99.90;;;;;;4975452;28;20032;-88
2020/12/26 05:01:19;;;;;;;7.88;3.70;;;1.70;99.90;;;;;;5004200;28;20042;-88
2020/12/26 05:03:45;;;;;;;6.07;3.15;;;1.70;99.90;;;;;;4993741;28;20070;-88
2020/12/26 05:06:13;;;;;;;8.25;3.78;;;1.80;99.90;;;;;;5007214;28;20041;-88
2020/12/26 05:08:38;;;;;;;9.00;3.60;;;1.80;99.90;;;;;;4993308;28;20038;-88
2020/12/26 05:11:04;;;;;;;7.85;4.05;;;1.80;99.90;;;;;;4995702;28;20042;-88
2020/12/26 05:13:29;;;;;;;9.52;4.55;;;1.80;99.90;;;;;;4988321;28;20178;-88
2020/12/26 05:15:55;;;;;;;8.57;3.35;;;1.70;99.90;;;;;;5004262;28;20082;-88
2020/12/26 05:18:22;;;;;;;6.28;3.20;;;1.60;99.90;;;;;;4985664;28;20038;-88
2020/12/26 05:20:48;;;;;;;10.10;3.63;;;1.60;99.90;;;;;;4990258;28;20042;-88
2020/12/26 05:23:18;;;;;;;9.65;5.40;;;1.60;99.90;;;;;;4983177;28;20034;-88
2020/12/26 05:25:48;;;;;;;9.65;4.85;;;1.70;99.90;;;;;;4983032;28;20129;-88
2020/12/26 05:28:16;;;;;;;8.52;4.60;;;1.70;99.90;;;;;;4993281;28;20066;-88
2020/12/26 05:30:44;;;;;;;11.80;6.53;;;1.60;99.90;;;;;;5003980;28;20046;-88
2020/12/26 05:33:11;;;;;;;11.73;5.10;;;1.70;99.90;;;;;;5024562;28;20041;-88
2020/12/26 05:35:42;;;;;;;7.85;4.97;;;1.60;99.90;;;;;;5033940;28;20041;-88
2020/12/26 05:38:23;;;;;;;8.27;5.28;;;1.60;99.90;;;;;;5026069;28;20037;-88
2020/12/26 05:40:51;;;;;;;8.68;4.82;;;1.60;99.90;;;;;;5025535;28;20034;-88
2020/12/26 05:43:23;;;;;;;8.27;4.93;;;1.60;99.90;;;;;;5011796;28;20037;-88
2020/12/26 05:45:50;;;;;;;6.28;4.10;;;1.60;99.90;;;;;;5028063;28;20047;-88
2020/12/26 05:48:21;;;;;;;9.55;5.05;;;1.60;99.90;;;;;;5041910;28;20033;-88
2020/12/26 05:50:50;;;;;;;6.45;4.10;;;1.60;99.90;;;;;;5036441;28;20120;-88
2020/12/26 05:53:37;;;;;;;11.20;6.00;;;1.60;99.90;;;;;;5030541;28;20104;-85
2020/12/26 05:56:17;;;;;;;9.38;5.43;;;1.80;99.90;;;;;;4968083;28;20144;-88
2020/12/26 05:58:43;;;;;;;8.00;4.15;;;1.70;99.90;;;;;;4968068;28;20042;-88
2020/12/26 06:01:09;;;;;;;15.15;4.75;;;1.70;99.90;;;;;;4949737;28;20078;-87
2020/12/26 06:03:34;;;;;;;10.35;5.78;;;1.70;99.90;;;;;;4951583;28;20037;-86
2020/12/26 06:06:02;;;;;;;11.25;6.70;;;1.80;99.90;;;;;;4963554;28;20046;-87
2020/12/26 06:08:29;;;;;;;11.32;5.95;;;1.80;99.90;;;;;;4968001;28;20032;-86
2020/12/26 06:10:56;;;;;;;9.73;5.38;;;1.90;99.90;;;;;;4952423;28;20039;-86
2020/12/26 06:13:25;;;;;;;8.63;6.07;;;1.90;99.90;;;;;;4976138;28;20035;-86
2020/12/26 06:15:53;;;;;;;9.32;4.88;;;2.00;99.90;;;;;;4966042;28;20099;-87
2020/12/26 06:18:20;;;;;;;8.57;5.25;;;1.90;99.90;;;;;;4974325;28;20043;-85
2020/12/26 06:20:46;;;;;;;10.00;4.72;;;2.00;99.90;;;;;;4970548;28;20098;-86
2020/12/26 06:23:20;;;;;;;7.68;5.57;;;2.10;99.90;;;;;;4987947;28;20570;-86
2020/12/26 06:25:47;;;;;;;7.20;4.55;;;2.10;99.90;;;;;;4978970;28;20051;-86
2020/12/26 06:28:28;;;;;;;9.07;5.18;;;2.10;99.90;;;;;;4972233;28;20035;-86
2020/12/26 06:31:00;;;;;;;7.63;4.75;;;2.10;99.90;;;;;;4980439;28;20049;-86
2020/12/26 06:33:29;;;;;;;7.88;4.50;;;2.10;99.90;;;;;;5018329;28;20030;-87
2020/12/26 06:35:57;;;;;;;8.85;4.38;;;2.10;99.90;;;;;;5034077;28;20991;-86
2020/12/26 06:38:29;;;;;;;9.27;4.85;;;2.10;99.90;;;;;;5019281;28;20037;-87
2020/12/26 06:40:57;;;;;;;9.68;4.63;;;2.10;99.90;;;;;;5018971;28;20049;-86
2020/12/26 06:43:41;;;;;;;10.90;5.43;;;2.10;99.90;;;;;;5038098;28;20045;-86
2020/12/26 06:46:07;;;;;;;9.98;5.40;;;2.20;99.90;;;;;;5020146;28;20045;-86
2020/12/26 06:48:34;;;;;;;13.15;6.35;;;2.10;99.90;;;;;;5006699;28;20132;-87
2020/12/26 06:51:22;;;;;;;11.95;6.47;;;2.10;99.90;;;;;;5036247;28;20038;-86
2020/12/26 06:53:48;;;;;;;14.25;9.00;;;2.00;99.90;;;;;;5000846;28;20033;-86
2020/12/26 06:56:32;;;;;;;13.15;8.38;;;2.00;99.90;;;;;;5041659;28;20051;-86
2020/12/26 06:59:01;;;;;;;16.48;8.85;;;1.90;99.90;;;;;;5047086;28;20038;-86
2020/12/26 07:01:27;;;;;;;11.93;6.85;;;1.90;99.90;;;;;;5031943;28;20093;-86
2020/12/26 07:04:08;;;;;;;12.07;7.25;;;1.80;99.90;;;;;;5047722;28;20049;-87
2020/12/26 07:06:38;;;;;;;9.70;6.95;;;1.90;99.90;;;;;;5046837;28;20050;-86
2020/12/26 07:09:05;;;;;;;16.15;10.73;;;1.90;99.90;;;;;;5050547;28;20049;-86
2020/12/26 07:11:31;;;;;;;17.05;10.63;;;2.00;99.90;;;;;;5030930;28;20465;-86
2020/12/26 07:13:57;;;;;;;14.10;9.20;;;2.00;99.90;;;;;;5047418;28;20108;-87
2020/12/26 07:16:42;;;;;;;16.85;11.00;;;2.00;99.90;;;;;;5047381;28;20037;-87
2020/12/26 07:19:23;;;;;;;16.83;11.13;;;2.10;99.90;;;;;;5049524;28;20075;-87
2020/12/26 07:21:56;;;;;;;15.80;9.88;;;2.20;99.90;;;;;;5029741;28;20041;-87
2020/12/26 07:24:36;;;;;;;14.93;9.52;;;2.20;99.90;;;;;;5044856;28;20057;-86
2020/12/26 07:27:12;;;;;;;;;;;2.20;99.90;;;;;;5028357;28;20056;-87
2020/12/26 07:29:52;;;;;;;15.07;11.00;;;2.20;99.90;;;;;;5052829;28;19915;-87
2020/12/26 07:32:37;;;;;;;;;;;2.30;99.90;;;;;;5044937;28;20121;-87
2020/12/26 07:35:05;;;;;;;17.55;11.40;;;2.30;99.90;;;;;;5028789;28;19920;-86
2020/12/26 07:37:31;;;;;;;23.00;13.68;;;2.40;99.90;;;;;;5029650;28;20033;-86
2020/12/26 07:39:56;;;;;;;20.20;11.68;;;2.30;99.90;;;;;;5044289;28;20037;-86
2020/12/26 07:42:22;;;;;;;18.08;12.35;;;2.40;99.90;;;;;;5039105;28;20298;-86
2020/12/26 07:44:48;;;;;;;22.33;14.02;;;2.30;99.90;;;;;;5034140;28;20029;-87
2020/12/26 07:47:15;;;;;;;16.33;10.43;;;2.30;99.90;;;;;;5029476;28;20100;-87
2020/12/26 07:49:40;;;;;;;17.80;11.70;;;2.30;99.90;;;;;;5029974;28;20030;-87
2020/12/26 07:52:09;;;;;;;15.07;10.63;;;2.30;99.90;;;;;;5038125;28;20047;-87
2020/12/26 07:54:35;;;;;;;14.45;8.40;;;2.30;99.90;;;;;;5028108;28;20065;-86
2020/12/26 07:57:02;;;;;;;15.48;9.60;;;2.30;99.90;;;;;;5046380;28;20485;-86
2020/12/26 07:59:28;;;;;;;16.02;9.35;;;2.30;99.90;;;;;;5029967;28;20125;-85
2020/12/26 08:01:55;;;;;;;15.73;9.55;;;2.30;99.90;;;;;;5030016;28;20040;-87
2020/12/26 08:04:21;;;;;;;16.55;10.43;;;2.30;99.90;;;;;;5036437;28;20033;-87
2020/12/26 08:06:48;;;;;;;15.05;9.52;;;2.30;99.90;;;;;;5045428;28;20092;-86
2020/12/26 08:09:15;;;;;;;14.90;9.68;;;2.30;99.90;;;;;;5048697;28;20049;-87
2020/12/26 08:11:42;;;;;;;14.25;9.35;;;2.20;99.90;;;;;;5038454;28;20110;-86
2020/12/26 08:14:08;;;;;;;14.35;8.82;;;2.20;99.90;;;;;;5031701;28;20042;-86
2020/12/26 08:16:35;;;;;;;19.85;11.02;;;2.20;99.90;;;;;;5028510;28;20048;-86
2020/12/26 08:19:02;;;;;;;18.85;11.80;;;2.30;99.90;;;;;;5040227;28;20029;-86
2020/12/26 08:21:29;;;;;;;16.65;10.93;;;2.30;99.90;;;;;;5039300;28;20037;-87
2020/12/26 08:24:00;;;;;;;15.85;10.32;;;2.40;99.90;;;;;;5028538;28;20079;-87
2020/12/26 08:26:27;;;;;;;20.35;11.95;;;2.40;99.90;;;;;;5047970;28;20129;-88
2020/12/26 08:29:04;;;;;;;17.10;10.38;;;2.40;99.90;;;;;;5026567;28;20041;-87
2020/12/26 08:31:32;;;;;;;14.68;9.50;;;2.40;99.90;;;;;;5028170;28;20037;-86
2020/12/26 08:34:09;;;;;;;16.70;11.32;;;2.40;99.90;;;;;;5027582;28;20040;-88
2020/12/26 08:36:43;;;;;;;17.48;10.00;;;2.40;99.90;;;;;;5028800;28;20164;-87
2020/12/26 08:39:09;;;;;;;16.25;10.73;;;2.40;99.90;;;;;;5026944;28;20038;-87
2020/12/26 08:41:41;;;;;;;17.10;10.25;;;2.40;99.90;;;;;;5011919;28;20029;-87
2020/12/26 08:44:10;;;;;;;20.33;10.40;;;2.50;99.90;;;;;;5008238;28;20120;-87
2020/12/26 08:46:44;;;;;;;16.33;10.32;;;2.50;99.90;;;;;;5044707;28;20045;-87
2020/12/26 08:49:11;;;;;;;14.05;10.52;;;2.50;99.90;;;;;;5044749;28;20037;-87
2020/12/26 08:51:44;;;;;;;18.77;8.55;;;2.50;99.90;;;;;;5036376;28;20044;-87
2020/12/26 08:54:16;;;;;;;14.65;9.43;;;2.60;99.90;;;;;;5038949;28;20037;-87
2020/12/26 08:56:42;;;;;;;12.50;8.05;;;2.60;99.90;;;;;;5044178;28;20084;-87
2020/12/26 08:59:07;;;;;;;14.18;10.60;;;2.60;99.90;;;;;;5011690;28;20075;-88
2020/12/26 09:01:34;;;;;;;13.35;9.40;;;2.60;99.90;;;;;;5044637;28;20033;-86
2020/12/26 09:04:00;;;;;;;15.38;10.15;;;2.60;99.90;;;;;;5022700;28;20133;-87
2020/12/26 09:06:45;;;;;;;13.18;9.68;;;2.70;99.90;;;;;;5028333;28;20053;-87
2020/12/26 09:09:24;;;;;;;15.10;10.05;;;2.70;99.90;;;;;;5027348;28;20245;-87
2020/12/26 09:12:01;;;;;;;10.18;6.40;;;2.70;99.90;;;;;;5042664;28;20034;-87
2020/12/26 09:14:27;;;;;;;9.50;6.35;;;2.70;99.90;;;;;;5042274;28;20068;-87
2020/12/26 09:16:58;;;;;;;13.07;6.70;;;2.70;99.90;;;;;;5044403;28;20045;-87
2020/12/26 09:19:24;;;;;;;10.75;5.80;;;2.70;99.90;;;;;;5030850;28;20164;-87
2020/12/26 09:21:50;;;;;;;11.43;7.00;;;2.80;99.90;;;;;;5028115;28;20449;-87
2020/12/26 09:24:20;;;;;;;11.95;7.80;;;2.90;99.90;;;;;;5030287;28;20088;-87
2020/12/26 09:26:47;;;;;;;11.18;6.70;;;2.90;99.90;;;;;;5044748;28;20065;-87
2020/12/26 09:29:23;;;;;;;12.18;6.60;;;2.90;99.90;;;;;;5027900;28;20041;-86
2020/12/26 09:31:50;;;;;;;9.07;5.55;;;3.00;99.90;;;;;;5045131;28;20120;-86
2020/12/26 09:34:25;;;;;;;11.38;6.43;;;3.00;99.90;;;;;;5011352;28;20053;-87
2020/12/26 09:37:09;;;;;;;9.55;5.70;;;3.00;99.90;;;;;;5041940;28;20480;-87
2020/12/26 09:39:36;;;;;;;10.90;5.38;;;3.00;99.90;;;;;;5039282;28;20072;-87
2020/12/26 09:42:01;;;;;;;7.75;4.57;;;3.00;99.90;;;;;;5027480;28;20044;-86
2020/12/26 09:44:27;;;;;;;13.80;5.90;;;2.90;99.90;;;;;;5017587;28;20033;-87
2020/12/26 09:46:58;;;;;;;12.48;6.18;;;3.00;99.90;;;;;;5026914;28;20049;-87
2020/12/26 09:49:24;;;;;;;8.93;5.78;;;3.10;99.90;;;;;;5026028;28;20037;-87
2020/12/26 09:51:49;;;;;;;9.18;6.00;;;3.10;99.90;;;;;;5027444;28;20037;-87
2020/12/26 09:54:15;;;;;;;13.20;6.50;;;3.10;99.90;;;;;;5021066;28;20040;-86
2020/12/26 09:56:41;;;;;;;8.85;5.25;;;3.10;99.90;;;;;;5029562;28;20052;-87
2020/12/26 09:59:06;;;;;;;9.38;5.32;;;3.20;99.90;;;;;;5027074;28;20033;-87
2020/12/26 10:01:34;;;;;;;11.05;5.47;;;3.30;99.90;;;;;;5019024;28;20037;-87
2020/12/26 10:03:59;;;;;;;10.05;5.38;;;3.30;99.90;;;;;;5030772;28;20051;-86
2020/12/26 10:06:25;;;;;;;13.07;5.53;;;3.30;99.90;;;;;;5028012;28;20042;-87
2020/12/26 10:08:51;;;;;;;8.18;3.95;;;3.40;99.90;;;;;;5027936;28;20075;-87
2020/12/26 10:11:17;;;;;;;8.35;4.63;;;3.50;99.90;;;;;;5019127;28;20080;-87
2020/12/26 10:13:44;;;;;;;8.75;4.05;;;3.50;99.90;;;;;;5029877;28;20041;-86
2020/12/26 10:16:10;;;;;;;7.57;3.42;;;3.60;99.90;;;;;;5029975;28;20045;-87
2020/12/26 10:18:36;;;;;;;9.75;4.15;;;3.70;99.90;;;;;;5030390;28;20800;-86
2020/12/26 10:21:02;;;;;;;8.73;4.68;;;3.70;99.90;;;;;;5043562;28;20045;-86
2020/12/26 10:23:28;;;;;;;10.40;5.57;;;3.80;99.90;;;;;;5046371;28;20068;-87
2020/12/26 10:25:54;;;;;;;8.52;4.63;;;3.90;99.90;;;;;;5043602;28;20049;-86
2020/12/26 10:28:19;;;;;;;6.40;4.20;;;4.00;99.90;;;;;;5028477;28;20033;-87
2020/12/26 10:30:48;;;;;;;6.40;4.57;;;3.90;99.90;;;;;;5044840;28;20036;-86
2020/12/26 10:33:14;;;;;;;7.85;3.53;;;3.90;99.90;;;;;;5010570;28;20037;-86
2020/12/26 10:35:40;;;;;;;8.52;3.78;;;3.80;99.90;;;;;;5048797;28;20041;-86
2020/12/26 10:38:06;;;;;;;4.85;2.60;;;3.80;99.90;;;;;;5044341;28;20044;-86
2020/12/26 10:40:32;;;;;;;8.30;4.63;;;3.70;99.90;;;;;;5031252;28;20143;-85
2020/12/26 10:42:57;;;;;;;8.38;3.65;;;3.70;99.90;;;;;;5029727;28;20108;-86
2020/12/26 10:45:23;;;;;;;7.78;4.13;;;3.70;99.90;;;;;;5029708;28;20069;-87
2020/12/26 10:47:48;;;;;;;6.78;3.47;;;3.60;99.90;;;;;;5029037;28;20148;-86
2020/12/26 10:50:14;;;;;;;5.47;3.38;;;3.70;99.90;;;;;;5028182;28;20133;-87
2020/12/26 10:52:43;;;;;;;6.28;3.00;;;3.70;99.90;;;;;;5026246;28;20045;-86
2020/12/26 10:55:13;;;;;;;5.78;2.70;;;3.80;99.90;;;;;;5009457;28;20128;-85
2020/12/26 10:57:38;;;;;;;6.18;2.65;;;3.80;99.90;;;;;;5026750;28;20092;-86
2020/12/26 11:00:04;;;;;;;6.15;3.15;;;3.80;99.90;;;;;;5023672;28;20039;-87
2020/12/26 11:02:31;;;;;;;8.10;2.75;;;3.90;99.90;;;;;;5027191;28;20041;-87
2020/12/26 11:04:57;;;;;;;6.90;3.25;;;3.90;99.90;;;;;;5023897;28;20041;-86
2020/12/26 11:07:22;;;;;;;7.97;2.67;;;4.00;99.90;;;;;;5043669;28;20112;-87
2020/12/26 11:09:48;;;;;;;9.48;2.40;;;4.10;99.90;;;;;;5029707;28;20039;-87
2020/12/26 11:12:13;;;;;;;7.85;2.53;;;4.20;99.90;;;;;;5029113;28;20049;-90
2020/12/26 11:14:39;;;;;;;5.63;2.80;;;4.10;99.90;;;;;;5029608;28;20120;-85
2020/12/26 11:17:04;;;;;;;10.65;2.42;;;4.20;99.90;;;;;;5046892;28;20052;-86
2020/12/26 11:19:30;;;;;;;5.57;2.53;;;4.10;99.90;;;;;;5030382;28;20040;-87
2020/12/26 11:21:56;;;;;;;4.75;2.03;;;4.10;99.90;;;;;;5044806;28;20034;-87
2020/12/26 11:24:22;;;;;;;5.82;2.72;;;4.10;99.90;;;;;;5028832;28;20483;-86
2020/12/26 11:26:48;;;;;;;6.47;2.38;;;4.10;99.90;;;;;;5030065;28;20057;-87
2020/12/26 11:29:14;;;;;;;3.60;1.80;;;4.10;99.90;;;;;;5046105;28;20076;-87
2020/12/26 11:31:40;;;;;;;4.35;1.50;;;4.20;99.90;;;;;;5048670;28;20033;-87
2020/12/26 11:34:06;;;;;;;2.35;0.82;;;4.20;99.90;;;;;;5048234;28;20042;-87
2020/12/26 11:36:32;;;;;;;3.50;1.95;;;4.20;99.90;;;;;;5014585;28;20088;-86
2020/12/26 11:38:57;;;;;;;5.63;2.05;;;4.20;99.90;;;;;;5047933;28;20064;-87
2020/12/26 11:41:26;;;;;;;5.70;1.83;;;4.10;99.90;;;;;;5045937;28;20052;-87
2020/12/26 11:43:53;;;;;;;4.60;1.60;;;4.10;99.90;;;;;;5030909;28;20029;-87
2020/12/26 11:46:18;;;;;;;6.20;1.45;;;4.10;99.90;;;;;;5028058;28;20041;-87
2020/12/26 11:48:44;;;;;;;5.85;1.65;;;4.10;99.90;;;;;;5045356;28;20504;-88
2020/12/26 11:51:11;;;;;;;4.85;1.70;;;4.00;99.90;;;;;;5019605;28;20049;-86
2020/12/26 11:53:37;;;;;;;3.42;1.27;;;4.10;99.90;;;;;;5047509;28;20436;-86
2020/12/26 11:56:08;;;;;;;6.20;1.73;;;4.00;99.90;;;;;;5012759;28;20065;-87
2020/12/26 11:58:35;;;;;;;6.65;3.20;;;4.00;99.90;;;;;;5032653;28;20036;-87
2020/12/26 12:01:00;;;;;;;8.15;1.92;;;4.00;99.90;;;;;;5045962;28;20039;-87
2020/12/26 12:03:26;;;;;;;2.33;1.08;;;4.00;99.90;;;;;;5028522;28;20108;-88
2020/12/26 12:05:51;;;;;;;4.13;1.90;;;4.00;99.90;;;;;;5029808;28;20049;-87
2020/12/26 12:08:17;;;;;;;6.03;2.10;;;3.90;99.90;;;;;;5029515;28;20496;-87
2020/12/26 12:10:43;;;;;;;9.00;2.75;;;4.00;99.90;;;;;;5045403;28;20075;-86
2020/12/26 12:13:08;;;;;;;7.03;3.08;;;4.00;99.90;;;;;;5030554;28;20037;-87
2020/12/26 12:15:34;;;;;;;10.18;3.40;;;4.00;99.90;;;;;;5050319;28;20034;-86
2020/12/26 12:18:00;;;;;;;7.40;3.47;;;4.10;99.90;;;;;;5044618;28;20045;-86
2020/12/26 12:20:30;;;;;;;6.13;3.25;;;4.20;99.90;;;;;;5029934;28;20041;-87
2020/12/26 12:22:56;;;;;;;8.80;3.78;;;4.20;99.90;;;;;;5043155;28;20087;-86
2020/12/26 12:25:23;;;;;;;7.13;2.88;;;4.20;99.90;;;;;;5044680;28;20038;-87
2020/12/26 12:27:49;;;;;;;10.00;5.88;;;4.20;99.90;;;;;;5029817;28;20037;-89
2020/12/26 12:30:15;;;;;;;7.78;4.40;;;4.20;99.90;;;;;;5027622;28;20038;-86
2020/12/26 12:32:41;;;;;;;10.57;4.70;;;4.20;99.90;;;;;;5029739;28;20109;-87
2020/12/26 12:35:08;;;;;;;7.25;3.35;;;4.20;99.90;;;;;;5046127;28;20041;-86
2020/12/26 12:37:34;;;;;;;8.48;4.53;;;4.20;99.90;;;;;;5041665;28;20048;-85
2020/12/26 12:39:59;;;;;;;7.55;2.78;;;4.30;99.90;;;;;;5022054;28;20041;-86
2020/12/26 12:42:29;;;;;;;7.85;3.15;;;4.20;99.90;;;;;;5047253;28;20033;-87
2020/12/26 12:44:55;;;;;;;8.55;3.17;;;4.30;99.90;;;;;;5027169;28;20041;-87
2020/12/26 12:47:26;;;;;;;7.30;2.47;;;4.30;99.90;;;;;;5029855;28;20477;-87
2020/12/26 12:49:52;;;;;;;5.43;1.75;;;4.30;99.90;;;;;;5026999;28;20037;-87
2020/12/26 12:52:18;;;;;;;5.50;2.17;;;4.30;99.90;;;;;;5025927;28;20037;-87
2020/12/26 12:54:44;;;;;;;4.45;2.15;;;4.40;99.90;;;;;;5041830;28;20462;-87
2020/12/26 12:57:09;;;;;;;4.60;1.40;;;4.40;99.90;;;;;;5033310;28;20041;-86
2020/12/26 12:59:36;;;;;;;4.32;1.67;;;4.50;99.90;;;;;;5045005;28;20042;-86